createdAt,value
2019-02-15T00:01:19.356Z,90.60
2019-02-15T00:02:36.522Z,90.70
2019-02-15T00:03:56.013Z,90.90
2019-02-15T00:05:12.362Z,90.90
2019-02-15T00:06:28.861Z,90.90
2019-02-15T00:07:45.426Z,90.80
2019-02-15T00:09:02.334Z,90.70
2019-02-15T00:10:20.786Z,90.70
2019-02-15T00:11:37.369Z,90.80
2019-02-15T00:12:54.612Z,90.70
2019-02-15T00:14:11.276Z,90.60
2019-02-15T00:15:27.870Z,90.50
2019-02-15T00:16:44.442Z,90.40
2019-02-15T00:18:19.945Z,90.50
2019-02-15T00:19:42.368Z,90.40
2019-02-15T00:21:18.141Z,90.50
2019-02-15T00:22:34.532Z,90.50
2019-02-15T00:23:52.321Z,90.50
2019-02-15T00:25:09.491Z,90.50
2019-02-15T00:26:26.064Z,90.50
2019-02-15T00:27:42.784Z,90.50
2019-02-15T00:28:59.309Z,90.40
2019-02-15T00:30:16.184Z,90.50
2019-02-15T00:31:32.573Z,90.50
2019-02-15T00:32:48.121Z,90.50
2019-02-15T00:34:12.436Z,90.50
2019-02-15T00:35:28.946Z,90.60
2019-02-15T00:36:45.373Z,90.80
2019-02-15T00:38:02.431Z,90.60
2019-02-15T00:39:18.857Z,90.60
2019-02-15T00:40:35.902Z,90.50
2019-02-15T00:41:51.194Z,90.40
2019-02-15T00:43:22.048Z,90.40
2019-02-15T00:44:39.166Z,90.30
2019-02-15T00:46:14.576Z,90.60
2019-02-15T00:47:50.226Z,90.70
2019-02-15T00:49:09.085Z,90.90
2019-02-15T00:50:44.366Z,91.00
2019-02-15T00:52:19.969Z,90.90
2019-02-15T00:53:56.153Z,91.00
2019-02-15T00:55:31.665Z,91.00
2019-02-15T00:57:07.795Z,91.10
2019-02-15T00:58:43.098Z,91.20
2019-02-15T01:00:16.161Z,91.20
2019-02-15T01:01:39.742Z,91.30
2019-02-15T01:03:05.062Z,91.30
2019-02-15T01:04:35.157Z,91.20
2019-02-15T01:06:13.558Z,91.30
2019-02-15T01:07:49.001Z,91.20
2019-02-15T01:09:32.136Z,91.20
2019-02-15T01:10:58.077Z,91.20
2019-02-15T01:12:43.337Z,91.30
2019-02-15T01:13:58.638Z,91.40
2019-02-15T01:15:15.312Z,91.30
2019-02-15T01:16:31.911Z,91.40
2019-02-15T01:17:49.161Z,91.40
2019-02-15T01:19:05.680Z,91.50
2019-02-15T01:20:22.465Z,91.60
2019-02-15T01:21:39.452Z,91.70
2019-02-15T01:22:56.076Z,91.50
2019-02-15T01:24:13.241Z,91.40
2019-02-15T01:25:35.398Z,91.40
2019-02-15T01:26:55.601Z,91.40
2019-02-15T01:28:23.954Z,91.20
2019-02-15T01:30:00.333Z,91.20
2019-02-15T01:31:38.821Z,91.30
2019-02-15T01:33:14.229Z,91.20
2019-02-15T01:34:42.514Z,91.30
2019-02-15T01:36:17.973Z,91.20
2019-02-15T01:37:49.939Z,91.20
2019-02-15T01:39:15.129Z,91.30
2019-02-15T01:40:50.394Z,91.30
2019-02-15T01:42:28.844Z,91.20
2019-02-15T01:44:04.306Z,91.30
2019-02-15T01:45:39.636Z,91.30
2019-02-15T01:47:04.929Z,91.40
2019-02-15T01:48:22.032Z,91.40
2019-02-15T01:49:38.982Z,91.60
2019-02-15T01:50:55.546Z,91.80
2019-02-15T01:52:12.632Z,91.80
2019-02-15T01:53:29.200Z,91.80
2019-02-15T01:54:46.595Z,91.70
2019-02-15T01:56:02.933Z,91.70
2019-02-15T01:57:19.384Z,91.80
2019-02-15T01:58:36.517Z,91.70
2019-02-15T01:59:52.958Z,91.80
2019-02-15T02:01:09.918Z,91.60
2019-02-15T02:02:28.384Z,91.60
2019-02-15T02:03:44.804Z,91.60
2019-02-15T02:05:01.315Z,91.50
2019-02-15T02:06:18.418Z,91.50
2019-02-15T02:07:36.019Z,91.30
2019-02-15T02:10:46.297Z,91.20
2019-02-15T02:12:02.934Z,91.20
2019-02-15T02:13:18.249Z,91.30
2019-02-15T02:14:42.586Z,91.40
2019-02-15T02:15:58.980Z,91.60
2019-02-15T02:17:15.629Z,91.80
2019-02-15T02:18:32.304Z,92.10
2019-02-15T02:19:49.161Z,92.40
2019-02-15T02:21:05.779Z,92.40
2019-02-15T02:22:22.572Z,92.50
2019-02-15T02:23:39.034Z,92.60
2019-02-15T02:24:55.495Z,92.60
2019-02-15T02:26:12.842Z,92.60
2019-02-15T02:27:29.725Z,92.60
2019-02-15T02:28:47.333Z,92.50
2019-02-15T02:30:05.846Z,92.40
2019-02-15T02:31:22.551Z,92.40
2019-02-15T02:32:39.214Z,92.40
2019-02-15T02:33:57.864Z,92.60
2019-02-15T02:35:14.217Z,92.60
2019-02-15T02:36:31.488Z,92.60
2019-02-15T02:37:48.013Z,92.60
2019-02-15T02:39:04.977Z,92.70
2019-02-15T02:40:22.835Z,92.90
2019-02-15T02:41:39.757Z,92.90
2019-02-15T02:42:56.966Z,92.90
2019-02-15T02:44:13.597Z,92.80
2019-02-15T02:45:30.386Z,92.80
2019-02-15T02:46:46.841Z,92.80
2019-02-15T02:48:03.397Z,92.90
2019-02-15T02:49:19.881Z,92.90
2019-02-15T02:50:36.433Z,92.80
2019-02-15T02:51:53.081Z,92.80
2019-02-15T02:53:09.561Z,92.80
2019-02-15T02:54:26.391Z,92.70
2019-02-15T02:55:42.814Z,92.60
2019-02-15T02:57:00.008Z,92.60
2019-02-15T02:58:16.585Z,92.60
2019-02-15T02:59:33.174Z,92.50
2019-02-15T03:00:49.705Z,92.50
2019-02-15T03:02:06.091Z,92.50
2019-02-15T03:03:23.161Z,92.50
2019-02-15T03:04:39.792Z,92.50
2019-02-15T03:05:56.068Z,92.40
2019-02-15T03:07:13.193Z,92.40
2019-02-15T03:08:29.728Z,92.70
2019-02-15T03:09:46.261Z,92.80
2019-02-15T03:11:02.822Z,92.80
2019-02-15T03:12:19.088Z,92.90
2019-02-15T03:13:35.735Z,93.00
2019-02-15T03:14:53.920Z,92.90
2019-02-15T03:16:10.350Z,92.80
2019-02-15T03:17:27.696Z,92.80
2019-02-15T03:18:44.963Z,92.70
2019-02-15T03:20:01.267Z,92.80
2019-02-15T03:21:19.329Z,92.70
2019-02-15T03:22:36.247Z,92.90
2019-02-15T03:23:52.873Z,93.00
2019-02-15T03:25:09.236Z,92.90
2019-02-15T03:26:25.710Z,93.00
2019-02-15T03:27:42.560Z,93.00
2019-02-15T03:28:59.583Z,93.00
2019-02-15T03:30:16.925Z,92.90
2019-02-15T03:31:34.125Z,92.90
2019-02-15T03:32:50.566Z,92.90
2019-02-15T03:34:07.133Z,93.10
2019-02-15T03:35:23.695Z,93.20
2019-02-15T03:36:58.999Z,93.20
2019-02-15T03:40:29.590Z,93.00
2019-02-15T03:41:45.973Z,92.90
2019-02-15T03:43:02.814Z,92.80
2019-02-15T03:44:22.355Z,92.90
2019-02-15T03:45:37.748Z,92.90
2019-02-15T03:46:54.365Z,92.90
2019-02-15T03:48:10.679Z,93.00
2019-02-15T03:49:27.161Z,93.10
2019-02-15T03:50:43.801Z,93.30
2019-02-15T03:52:01.028Z,93.10
2019-02-15T03:53:17.699Z,93.10
2019-02-15T03:54:34.182Z,93.10
2019-02-15T03:55:50.851Z,93.20
2019-02-15T03:57:07.762Z,93.10
2019-02-15T03:58:24.264Z,93.20
2019-02-15T03:59:41.495Z,93.00
2019-02-15T04:00:57.937Z,93.00
2019-02-15T04:02:15.194Z,93.20
2019-02-15T04:03:31.645Z,93.10
2019-02-15T04:04:48.065Z,93.10
2019-02-15T04:06:04.559Z,93.10
2019-02-15T04:07:21.005Z,93.20
2019-02-15T04:08:36.234Z,93.20
2019-02-15T04:10:00.492Z,93.20
2019-02-15T04:11:17.702Z,93.30
2019-02-15T04:12:34.181Z,93.30
2019-02-15T04:13:50.493Z,93.30
2019-02-15T04:15:07.131Z,93.20
2019-02-15T04:16:23.613Z,93.10
2019-02-15T04:17:39.954Z,93.10
2019-02-15T04:18:56.384Z,93.40
2019-02-15T04:20:12.749Z,93.20
2019-02-15T04:21:29.417Z,93.20
2019-02-15T04:22:46.678Z,93.20
2019-02-15T04:24:03.340Z,93.40
2019-02-15T04:25:19.781Z,93.60
2019-02-15T04:26:36.201Z,93.80
2019-02-15T04:27:52.617Z,94.00
2019-02-15T04:29:09.069Z,94.00
2019-02-15T04:30:24.453Z,94.10
2019-02-15T04:31:48.653Z,94.10
2019-02-15T04:33:05.613Z,94.00
2019-02-15T04:34:22.053Z,93.80
2019-02-15T04:35:37.316Z,93.70
2019-02-15T04:37:01.482Z,93.60
2019-02-15T04:38:18.147Z,93.50
2019-02-15T04:39:34.875Z,93.40
2019-02-15T04:40:50.107Z,93.40
2019-02-15T04:42:14.393Z,93.40
2019-02-15T04:43:31.658Z,93.50
2019-02-15T04:44:48.885Z,93.60
2019-02-15T04:46:05.258Z,93.40
2019-02-15T04:47:22.574Z,93.30
2019-02-15T04:48:38.957Z,93.30
2019-02-15T04:49:56.157Z,93.30
2019-02-15T04:51:12.666Z,93.30
2019-02-15T04:52:27.919Z,93.50
2019-02-15T04:53:52.113Z,93.50
2019-02-15T04:55:09.050Z,93.60
2019-02-15T04:56:25.457Z,93.70
2019-02-15T04:57:42.060Z,93.70
2019-02-15T04:58:58.400Z,93.60
2019-02-15T05:00:15.699Z,93.60
2019-02-15T05:01:32.207Z,93.50
2019-02-15T05:02:48.999Z,93.50
2019-02-15T05:04:06.618Z,93.40
2019-02-15T05:05:23.308Z,93.50
2019-02-15T05:06:40.621Z,93.30
2019-02-15T05:07:57.650Z,93.50
2019-02-15T05:09:14.810Z,93.30
2019-02-15T05:10:32.025Z,93.50
2019-02-15T05:11:49.394Z,93.50
2019-02-15T05:13:05.949Z,93.70
2019-02-15T05:14:24.519Z,93.60
2019-02-15T05:15:41.164Z,93.60
2019-02-15T05:16:58.330Z,93.60
2019-02-15T05:18:15.041Z,93.70
2019-02-15T05:19:32.107Z,93.80
2019-02-15T05:20:48.498Z,93.90
2019-02-15T05:22:05.542Z,94.10
2019-02-15T05:23:22.063Z,94.30
2019-02-15T05:24:38.420Z,94.20
2019-02-15T05:25:54.926Z,94.20
2019-02-15T05:27:11.282Z,94.10
2019-02-15T05:28:27.705Z,94.00
2019-02-15T05:29:44.347Z,94.00
2019-02-15T05:31:03.853Z,93.90
2019-02-15T05:32:20.614Z,93.90
2019-02-15T05:33:37.112Z,93.70
2019-02-15T05:34:54.370Z,93.70
2019-02-15T05:36:10.905Z,93.70
2019-02-15T05:37:28.138Z,93.60
2019-02-15T05:38:44.709Z,93.50
2019-02-15T05:40:01.144Z,93.60
2019-02-15T05:41:17.537Z,93.50
2019-02-15T05:42:34.177Z,93.30
2019-02-15T05:43:39.210Z,93.40
2019-02-15T05:45:04.526Z,93.40
2019-02-15T05:46:41.437Z,93.40
2019-02-15T05:47:58.056Z,93.40
2019-02-15T05:49:14.729Z,93.50
2019-02-15T05:50:31.001Z,93.50
2019-02-15T05:51:47.682Z,93.50
2019-02-15T05:53:04.993Z,93.50
2019-02-15T05:54:20.280Z,93.70
2019-02-15T05:55:44.398Z,93.90
2019-02-15T05:57:00.740Z,94.00
2019-02-15T05:58:16.973Z,94.20
2019-02-15T05:59:34.070Z,94.20
2019-02-15T06:00:51.221Z,94.40
2019-02-15T06:02:07.788Z,94.20
2019-02-15T06:03:25.054Z,94.30
2019-02-15T06:04:41.657Z,94.20
2019-02-15T06:05:56.901Z,94.30
2019-02-15T06:07:13.318Z,94.30
2019-02-15T06:08:31.358Z,94.10
2019-02-15T06:09:49.082Z,94.20
2019-02-15T06:11:07.824Z,94.20
2019-02-15T06:12:24.058Z,94.30
2019-02-15T06:13:39.317Z,94.50
2019-02-15T06:15:14.448Z,94.60
2019-02-15T06:16:27.806Z,94.50
2019-02-15T06:17:44.298Z,94.40
2019-02-15T06:19:00.882Z,94.40
2019-02-15T06:20:17.172Z,94.30
2019-02-15T06:21:34.012Z,94.20
2019-02-15T06:22:50.504Z,94.20
2019-02-15T06:24:07.836Z,94.20
2019-02-15T06:25:25.218Z,94.10
2019-02-15T06:26:42.130Z,94.00
2019-02-15T06:27:58.669Z,93.90
2019-02-15T06:29:15.941Z,93.80
2019-02-15T06:30:32.529Z,93.70
2019-02-15T06:31:49.758Z,93.40
2019-02-15T06:33:06.728Z,93.30
2019-02-15T06:34:23.189Z,93.30
2019-02-15T06:35:39.562Z,93.30
2019-02-15T06:36:56.773Z,93.30
2019-02-15T06:38:13.281Z,93.40
2019-02-15T06:39:30.064Z,93.30
2019-02-15T06:40:47.304Z,93.40
2019-02-15T06:42:04.536Z,93.50
2019-02-15T06:43:20.844Z,93.80
2019-02-15T06:44:36.118Z,93.50
2019-02-15T06:46:00.282Z,93.10
2019-02-15T06:47:16.773Z,92.90
2019-02-15T06:48:33.789Z,92.50
2019-02-15T06:49:50.165Z,92.20
2019-02-15T06:51:08.096Z,91.90
2019-02-15T06:52:24.645Z,91.50
2019-02-15T06:53:41.978Z,90.90
2019-02-15T06:54:58.441Z,90.70
2019-02-15T06:56:15.357Z,89.90
2019-02-15T06:57:32.291Z,88.30
2019-02-15T07:00:45.817Z,86.10
2019-02-15T07:05:59.498Z,79.50
2019-02-15T07:07:15.893Z,77.00
2019-02-15T07:08:31.160Z,75.00
2019-02-15T07:09:55.549Z,72.30
2019-02-15T07:11:11.921Z,68.90
2019-02-15T07:12:28.393Z,65.70
2019-02-15T07:13:45.568Z,63.50
2019-02-15T07:15:02.033Z,60.90
2019-02-15T07:16:22.422Z,57.90
2019-02-15T07:17:46.557Z,55.30
2019-02-15T07:19:03.013Z,52.20
2019-02-15T07:20:19.460Z,49.70
2019-02-15T07:21:36.480Z,48.20
2019-02-15T07:22:53.030Z,46.00
2019-02-15T07:24:09.449Z,44.60
2019-02-15T07:25:26.012Z,43.30
2019-02-15T07:26:42.636Z,42.60
2019-02-15T07:28:02.584Z,40.70
2019-02-15T07:29:19.907Z,39.80
2019-02-15T07:30:36.561Z,38.40
2019-02-15T07:31:52.945Z,36.80
2019-02-15T07:33:09.617Z,35.70
2019-02-15T07:34:26.712Z,35.40
2019-02-15T07:35:43.091Z,35.10
2019-02-15T07:37:00.088Z,34.90
2019-02-15T07:38:17.072Z,34.30
2019-02-15T07:39:33.841Z,34.00
2019-02-15T07:40:51.030Z,33.60
2019-02-15T07:42:07.540Z,33.20
2019-02-15T07:43:24.559Z,32.50
2019-02-15T07:44:41.044Z,32.00
2019-02-15T07:45:57.523Z,31.60
2019-02-15T07:47:14.027Z,31.70
2019-02-15T07:48:31.203Z,31.60
2019-02-15T07:49:48.113Z,31.30
2019-02-15T07:51:09.727Z,31.00
2019-02-15T07:52:22.528Z,30.70
2019-02-15T07:53:39.171Z,30.60
2019-02-15T07:54:55.525Z,30.50
2019-02-15T07:56:11.914Z,29.70
2019-02-15T07:57:28.266Z,28.60
2019-02-15T07:58:44.878Z,27.90
2019-02-15T08:00:00.728Z,27.40
2019-02-15T08:01:25.613Z,27.10
2019-02-15T08:02:42.164Z,26.90
2019-02-15T08:04:00.285Z,26.40
2019-02-15T08:05:17.438Z,25.90
2019-02-15T08:06:34.013Z,25.40
2019-02-15T08:07:50.405Z,24.90
2019-02-15T08:09:06.941Z,24.80
2019-02-15T08:10:23.504Z,24.60
2019-02-15T08:11:40.090Z,24.50
2019-02-15T08:12:56.536Z,24.10
2019-02-15T08:14:17.535Z,23.80
2019-02-15T08:15:36.393Z,23.60
2019-02-15T08:16:54.287Z,23.30
2019-02-15T08:18:10.825Z,23.10
2019-02-15T08:19:27.695Z,22.90
2019-02-15T08:20:44.608Z,22.80
2019-02-15T08:22:01.807Z,22.80
2019-02-15T08:23:18.499Z,22.70
2019-02-15T08:24:36.791Z,22.90
2019-02-15T08:25:53.292Z,22.70
2019-02-15T08:27:09.643Z,22.40
2019-02-15T08:28:26.896Z,22.70
2019-02-15T08:29:43.945Z,22.30
2019-02-15T08:31:00.437Z,22.10
2019-02-15T08:32:18.377Z,22.20
2019-02-15T08:33:34.921Z,22.20
2019-02-15T08:34:51.248Z,21.90
2019-02-15T08:36:07.766Z,21.90
2019-02-15T08:37:24.220Z,21.90
2019-02-15T08:38:40.514Z,22.00
2019-02-15T08:39:57.056Z,22.20
2019-02-15T08:41:13.576Z,22.10
2019-02-15T08:42:30.761Z,21.80
2019-02-15T08:43:47.777Z,22.00
2019-02-15T08:45:04.059Z,22.20
2019-02-15T08:46:21.370Z,22.30
2019-02-15T08:47:39.773Z,22.50
2019-02-15T08:48:57.188Z,22.20
2019-02-15T08:50:13.835Z,22.10
2019-02-15T08:51:30.321Z,22.10
2019-02-15T08:52:47.321Z,22.00
2019-02-15T08:54:04.496Z,21.70
2019-02-15T08:55:21.396Z,21.70
2019-02-15T08:56:37.818Z,22.70
2019-02-15T08:57:55.648Z,23.50
2019-02-15T08:59:12.096Z,23.00
2019-02-15T09:00:28.607Z,24.20
2019-02-15T09:01:47.689Z,23.80
2019-02-15T09:03:04.153Z,24.30
2019-02-15T09:04:21.187Z,24.20
2019-02-15T09:05:40.296Z,24.90
2019-02-15T09:06:56.791Z,25.40
2019-02-15T09:08:13.876Z,25.00
2019-02-15T09:09:30.091Z,24.70
2019-02-15T09:10:46.443Z,24.30
2019-02-15T09:12:03.632Z,24.00
2019-02-15T09:13:20.098Z,23.90
2019-02-15T09:14:35.358Z,23.40
2019-02-15T09:15:59.529Z,22.80
2019-02-15T09:17:23.657Z,23.90
2019-02-15T09:18:40.320Z,24.40
2019-02-15T09:19:56.785Z,25.00
2019-02-15T09:21:13.232Z,24.80
2019-02-15T09:22:29.601Z,25.00
2019-02-15T09:23:46.860Z,25.10
2019-02-15T09:25:03.355Z,25.00
2019-02-15T09:26:20.237Z,24.80
2019-02-15T09:29:42.778Z,24.10
2019-02-15T09:30:59.386Z,25.00
2019-02-15T09:32:15.756Z,24.70
2019-02-15T09:33:32.341Z,25.00
2019-02-15T09:34:49.464Z,24.10
2019-02-15T09:36:06.548Z,25.10
2019-02-15T09:37:22.873Z,25.10
2019-02-15T09:38:39.387Z,25.20
2019-02-15T09:39:56.117Z,24.90
2019-02-15T09:41:12.805Z,24.20
2019-02-15T09:42:29.721Z,23.30
2019-02-15T09:43:46.309Z,23.20
2019-02-15T09:45:03.624Z,24.00
2019-02-15T09:46:20.436Z,23.90
2019-02-15T09:49:21.746Z,23.40
2019-02-15T09:50:38.668Z,23.50
2019-02-15T09:51:55.617Z,23.50
2019-02-15T09:53:12.332Z,23.40
2019-02-15T09:54:28.804Z,23.70
2019-02-15T09:55:45.532Z,22.70
2019-02-15T09:57:02.154Z,23.30
2019-02-15T09:58:18.689Z,23.00
2019-02-15T09:59:35.598Z,22.60
2019-02-15T10:00:52.277Z,22.70
2019-02-15T10:02:10.552Z,23.50
2019-02-15T10:03:27.452Z,22.70
2019-02-15T10:04:43.877Z,23.20
2019-02-15T10:06:00.440Z,22.90
2019-02-15T10:07:17.168Z,23.10
2019-02-15T10:08:35.994Z,23.50
2019-02-15T10:09:53.117Z,23.30
2019-02-15T10:11:09.793Z,23.00
2019-02-15T10:12:26.406Z,22.70
2019-02-15T10:13:43.049Z,23.20
2019-02-15T10:14:59.893Z,23.60
2019-02-15T10:16:17.158Z,23.30
2019-02-15T10:17:32.537Z,23.80
2019-02-15T10:18:56.819Z,23.70
2019-02-15T10:20:13.157Z,23.50
2019-02-15T10:21:30.459Z,23.50
2019-02-15T10:22:47.309Z,23.40
2019-02-15T10:24:03.757Z,23.10
2019-02-15T10:25:20.748Z,22.50
2019-02-15T10:26:38.864Z,22.50
2019-02-15T10:27:55.308Z,23.00
2019-02-15T10:29:11.964Z,22.50
2019-02-15T10:30:28.284Z,22.70
2019-02-15T10:31:44.950Z,23.90
2019-02-15T10:33:02.224Z,24.00
2019-02-15T10:34:18.901Z,23.90
2019-02-15T10:35:36.035Z,24.00
2019-02-15T10:36:52.649Z,23.90
2019-02-15T10:38:09.184Z,24.10
2019-02-15T10:39:25.530Z,24.40
2019-02-15T10:40:42.191Z,23.90
2019-02-15T10:41:58.708Z,23.60
2019-02-15T10:43:15.017Z,24.00
2019-02-15T10:44:32.410Z,23.50
2019-02-15T10:45:48.805Z,24.00
2019-02-15T10:47:13.646Z,24.60
2019-02-15T10:48:23.962Z,24.60
2019-02-15T10:49:40.453Z,24.60
2019-02-15T10:50:57.077Z,25.10
2019-02-15T10:52:14.189Z,24.80
2019-02-15T10:53:30.720Z,24.40
2019-02-15T10:54:47.214Z,25.30
2019-02-15T10:56:03.633Z,25.60
2019-02-15T10:57:20.049Z,25.70
2019-02-15T10:58:39.489Z,26.20
2019-02-15T10:59:55.896Z,26.30
2019-02-15T11:01:12.931Z,26.90
2019-02-15T11:02:29.598Z,26.90
2019-02-15T11:03:47.109Z,27.20
2019-02-15T11:05:04.213Z,27.10
2019-02-15T11:06:20.770Z,27.10
2019-02-15T11:07:37.597Z,27.40
2019-02-15T11:08:54.075Z,28.00
2019-02-15T11:10:11.385Z,28.20
2019-02-15T11:11:28.548Z,28.80
2019-02-15T11:12:45.070Z,28.90
2019-02-15T11:14:01.513Z,29.40
2019-02-15T11:15:18.108Z,29.70
2019-02-15T11:16:35.342Z,29.90
2019-02-15T11:17:51.900Z,29.90
2019-02-15T11:19:08.805Z,30.10
2019-02-15T11:20:25.921Z,30.60
2019-02-15T11:21:42.499Z,31.10
2019-02-15T11:22:59.051Z,31.50
2019-02-15T11:24:16.094Z,32.00
2019-02-15T11:25:33.321Z,32.20
2019-02-15T11:26:50.415Z,32.40
2019-02-15T11:28:06.951Z,32.90
2019-02-15T11:29:23.697Z,32.40
2019-02-15T11:30:28.741Z,32.20
2019-02-15T11:31:33.881Z,32.90
2019-02-15T11:32:50.253Z,33.70
2019-02-15T11:34:06.863Z,34.60
2019-02-15T11:35:23.275Z,35.00
2019-02-15T11:36:40.482Z,35.60
2019-02-15T11:37:57.298Z,35.30
2019-02-15T11:39:13.860Z,35.20
2019-02-15T11:40:30.667Z,35.80
2019-02-15T11:41:46.980Z,36.00
2019-02-15T11:43:03.674Z,36.10
2019-02-15T11:44:20.277Z,35.80
2019-02-15T11:45:36.832Z,35.80
2019-02-15T11:46:56.707Z,36.10
2019-02-15T11:48:12.772Z,35.80
2019-02-15T11:49:29.964Z,36.30
2019-02-15T11:50:46.588Z,36.20
2019-02-15T11:52:03.711Z,36.40
2019-02-15T11:53:20.362Z,36.30
2019-02-15T11:54:35.639Z,35.80
2019-02-15T11:55:59.750Z,35.60
2019-02-15T11:57:14.858Z,36.20
2019-02-15T11:58:38.964Z,38.20
2019-02-15T11:59:55.211Z,37.50
2019-02-15T12:01:11.623Z,37.00
2019-02-15T12:02:28.600Z,36.70
2019-02-15T12:03:45.152Z,36.70
2019-02-15T12:05:01.586Z,37.10
2019-02-15T12:06:18.713Z,37.80
2019-02-15T12:07:35.257Z,37.00
2019-02-15T12:08:51.581Z,36.40
2019-02-15T12:10:08.448Z,37.70
2019-02-15T12:11:25.144Z,36.60
2019-02-15T12:12:42.261Z,36.80
2019-02-15T12:13:58.962Z,35.90
2019-02-15T12:15:16.225Z,34.90
2019-02-15T12:16:33.365Z,34.20
2019-02-15T12:17:49.800Z,34.40
2019-02-15T12:19:06.317Z,35.40
2019-02-15T12:20:22.683Z,34.20
2019-02-15T12:21:40.017Z,34.00
2019-02-15T12:22:56.988Z,33.60
2019-02-15T12:24:13.325Z,33.60
2019-02-15T12:25:28.515Z,35.90
2019-02-15T12:26:52.622Z,37.60
2019-02-15T12:28:08.890Z,36.30
2019-02-15T12:29:25.401Z,35.70
2019-02-15T12:30:41.766Z,37.40
2019-02-15T12:31:58.368Z,38.50
2019-02-15T12:33:15.520Z,36.60
2019-02-15T12:34:32.247Z,36.00
2019-02-15T12:35:48.785Z,35.70
2019-02-15T12:37:05.480Z,35.10
2019-02-15T12:38:22.614Z,34.90
2019-02-15T12:39:39.860Z,34.90
2019-02-15T12:40:58.166Z,34.40
2019-02-15T12:42:15.280Z,34.00
2019-02-15T12:43:30.445Z,34.00
2019-02-15T12:44:54.538Z,34.20
2019-02-15T12:46:11.282Z,35.30
2019-02-15T12:47:27.773Z,35.40
2019-02-15T12:48:46.460Z,35.50
2019-02-15T12:50:02.834Z,34.00
2019-02-15T12:51:19.422Z,34.50
2019-02-15T12:52:36.002Z,34.90
2019-02-15T12:53:53.173Z,33.70
2019-02-15T12:55:09.661Z,33.40
2019-02-15T12:56:26.211Z,33.20
2019-02-15T12:57:41.468Z,33.80
2019-02-15T12:59:05.669Z,33.20
2019-02-15T13:00:21.989Z,32.70
2019-02-15T13:01:38.478Z,32.60
2019-02-15T13:02:55.148Z,34.60
2019-02-15T13:04:11.776Z,34.00
2019-02-15T13:05:28.238Z,34.10
2019-02-15T13:06:44.660Z,33.40
2019-02-15T13:08:01.497Z,32.50
2019-02-15T13:09:18.071Z,34.50
2019-02-15T13:10:35.667Z,35.70
2019-02-15T13:11:52.477Z,34.60
2019-02-15T13:13:08.930Z,34.70
2019-02-15T13:14:24.209Z,33.60
2019-02-15T13:15:48.653Z,33.70
2019-02-15T13:17:05.446Z,34.00
2019-02-15T13:18:22.668Z,32.00
2019-02-15T13:19:39.989Z,31.80
2019-02-15T13:20:56.416Z,30.70
2019-02-15T13:22:13.917Z,30.40
2019-02-15T13:23:31.150Z,30.40
2019-02-15T13:24:47.567Z,30.70
2019-02-15T13:26:08.479Z,31.10
2019-02-15T13:27:22.928Z,31.60
2019-02-15T13:28:39.562Z,31.90
2019-02-15T13:29:56.093Z,31.80
2019-02-15T13:31:13.223Z,31.20
2019-02-15T13:32:29.687Z,31.80
2019-02-15T13:33:46.233Z,31.20
2019-02-15T13:35:02.813Z,31.30
2019-02-15T13:36:19.772Z,30.60
2019-02-15T13:37:37.951Z,31.70
2019-02-15T13:38:54.478Z,33.80
2019-02-15T13:40:10.881Z,34.00
2019-02-15T13:41:27.153Z,33.00
2019-02-15T13:42:43.765Z,31.00
2019-02-15T13:43:58.986Z,29.90
2019-02-15T13:45:23.122Z,30.90
2019-02-15T13:46:39.497Z,31.90
2019-02-15T13:47:56.110Z,32.00
2019-02-15T13:49:13.083Z,32.60
2019-02-15T13:50:29.709Z,31.40
2019-02-15T13:51:46.269Z,30.90
2019-02-15T13:53:03.451Z,30.20
2019-02-15T13:54:20.083Z,30.20
2019-02-15T13:55:37.354Z,30.20
2019-02-15T13:56:54.265Z,30.10
2019-02-15T13:58:11.632Z,30.20
2019-02-15T13:59:28.040Z,30.60
2019-02-15T14:00:44.388Z,32.00
2019-02-15T14:02:01.585Z,32.70
2019-02-15T14:03:18.044Z,33.30
2019-02-15T14:04:34.427Z,32.20
2019-02-15T14:05:50.849Z,31.90
2019-02-15T14:07:07.702Z,32.20
2019-02-15T14:08:24.324Z,31.10
2019-02-15T14:09:40.687Z,30.90
2019-02-15T14:10:57.191Z,31.80
2019-02-15T14:12:03.054Z,32.30
2019-02-15T14:13:08.382Z,32.90
2019-02-15T14:14:13.494Z,32.40
2019-02-15T14:15:18.633Z,32.40
2019-02-15T14:16:23.745Z,32.70
2019-02-15T14:17:28.869Z,32.50
2019-02-15T14:18:34.023Z,32.50
2019-02-15T14:19:39.147Z,33.10
2019-02-15T14:20:44.316Z,33.50
2019-02-15T14:21:49.460Z,33.50
2019-02-15T14:22:54.626Z,33.40
2019-02-15T14:24:00.906Z,32.60
2019-02-15T14:25:06.561Z,32.00
2019-02-15T14:26:11.643Z,32.00
2019-02-15T14:27:16.898Z,32.70
2019-02-15T14:28:22.331Z,33.30
2019-02-15T14:29:27.817Z,33.50
2019-02-15T14:30:32.939Z,32.40
2019-02-15T14:31:38.068Z,32.40
2019-02-15T14:32:43.140Z,31.80
2019-02-15T14:33:48.488Z,31.60
2019-02-15T14:34:55.242Z,32.30
2019-02-15T14:36:00.405Z,32.00
2019-02-15T14:37:05.572Z,32.20
2019-02-15T14:38:10.824Z,31.00
2019-02-15T14:39:15.973Z,29.60
2019-02-15T14:40:21.033Z,30.50
2019-02-15T14:41:26.084Z,29.40
2019-02-15T14:42:31.247Z,28.40
2019-02-15T14:43:36.388Z,27.90
2019-02-15T14:44:42.581Z,27.80
2019-02-15T14:45:47.710Z,27.40
2019-02-15T14:46:52.774Z,27.60
2019-02-15T14:47:58.017Z,27.40
2019-02-15T14:49:03.188Z,27.90
2019-02-15T14:50:08.326Z,27.80
2019-02-15T14:51:13.488Z,27.80
2019-02-15T14:52:18.607Z,27.90
2019-02-15T14:53:24.735Z,27.70
2019-02-15T14:54:29.892Z,28.10
2019-02-15T14:55:35.018Z,28.10
2019-02-15T14:56:42.491Z,27.60
2019-02-15T14:57:47.614Z,27.90
2019-02-15T14:58:52.741Z,27.80
2019-02-15T14:59:57.914Z,28.00
2019-02-15T15:01:03.464Z,28.10
2019-02-15T15:02:09.579Z,28.10
2019-02-15T15:03:14.785Z,28.30
2019-02-15T15:04:21.708Z,28.00
2019-02-15T15:05:26.934Z,27.30
2019-02-15T15:06:32.060Z,27.40
2019-02-15T15:07:37.238Z,27.30
2019-02-15T15:08:42.439Z,27.40
2019-02-15T15:09:47.508Z,27.60
2019-02-15T15:10:52.644Z,27.30
2019-02-15T15:11:57.850Z,27.30
2019-02-15T15:13:02.993Z,27.40
2019-02-15T15:14:08.258Z,27.60
2019-02-15T15:15:13.371Z,27.60
2019-02-15T15:16:19.325Z,28.00
2019-02-15T15:17:24.409Z,27.70
2019-02-15T15:18:29.547Z,28.00
2019-02-15T15:19:34.894Z,27.90
2019-02-15T15:20:40.025Z,27.90
2019-02-15T15:21:45.254Z,28.10
2019-02-15T15:22:50.378Z,27.70
2019-02-15T15:23:56.548Z,29.00
2019-02-15T15:25:01.582Z,28.90
2019-02-15T15:26:11.773Z,28.40
2019-02-15T15:27:13.561Z,28.40
2019-02-15T15:28:18.768Z,28.50
2019-02-15T15:29:23.942Z,28.00
2019-02-15T15:30:29.142Z,29.00
2019-02-15T15:31:34.297Z,28.40
2019-02-15T15:32:39.402Z,28.20
2019-02-15T15:33:44.582Z,28.00
2019-02-15T15:34:49.702Z,28.30
2019-02-15T15:35:54.856Z,28.30
2019-02-15T15:36:59.979Z,28.30
2019-02-15T15:38:06.466Z,28.40
2019-02-15T15:39:11.613Z,28.40
2019-02-15T15:40:16.693Z,28.70
2019-02-15T15:41:21.910Z,28.90
2019-02-15T15:42:27.118Z,28.50
2019-02-15T15:43:32.433Z,28.70
2019-02-15T15:44:37.670Z,28.50
2019-02-15T15:45:42.794Z,28.70
2019-02-15T15:46:47.928Z,28.70
2019-02-15T15:47:53.101Z,28.90
2019-02-15T15:48:58.229Z,29.10
2019-02-15T15:50:03.645Z,29.10
2019-02-15T15:51:08.734Z,29.10
2019-02-15T15:52:13.997Z,29.10
2019-02-15T15:53:19.112Z,29.20
2019-02-15T15:54:24.416Z,29.30
2019-02-15T15:55:29.681Z,29.10
2019-02-15T15:56:34.775Z,29.00
2019-02-15T15:57:40.015Z,28.90
2019-02-15T15:58:45.301Z,29.00
2019-02-15T15:59:51.751Z,29.20
2019-02-15T16:00:57.100Z,29.10
2019-02-15T16:02:02.495Z,29.50
2019-02-15T16:03:07.736Z,29.50
2019-02-15T16:04:12.789Z,29.30
2019-02-15T16:05:17.940Z,29.30
2019-02-15T16:06:24.693Z,29.60
2019-02-15T16:07:30.209Z,29.30
2019-02-15T16:08:35.375Z,29.70
2019-02-15T16:09:40.534Z,29.50
2019-02-15T16:10:45.563Z,29.70
2019-02-15T16:11:50.911Z,29.50
2019-02-15T16:12:56.074Z,29.30
2019-02-15T16:14:01.195Z,29.40
2019-02-15T16:15:07.094Z,29.70
2019-02-15T16:16:12.265Z,29.60
2019-02-15T16:17:17.575Z,29.60
2019-02-15T16:18:32.030Z,29.70
2019-02-15T16:19:29.584Z,29.80
2019-02-15T16:20:37.877Z,29.70
2019-02-15T16:21:44.502Z,29.90
2019-02-15T16:22:50.233Z,29.90
2019-02-15T16:23:55.387Z,29.90
2019-02-15T16:25:00.542Z,29.90
2019-02-15T16:26:05.714Z,29.80
2019-02-15T16:27:10.811Z,29.90
2019-02-15T16:28:17.017Z,30.30
2019-02-15T16:29:22.166Z,29.90
2019-02-15T16:30:30.067Z,29.90
2019-02-15T16:31:35.248Z,30.00